createdAt,value
2023-12-15T00:00:31.152Z,100976.44
2023-12-15T00:03:00.376Z,100927.09
2023-12-15T00:05:28.191Z,100668.97
2023-12-15T00:07:56.126Z,100951.88
2023-12-15T00:10:24.015Z,100783.72
2023-12-15T00:12:51.922Z,101052.69
2023-12-15T00:15:19.808Z,100723.84
2023-12-15T00:17:47.749Z,100951.81
2023-12-15T00:20:18.216Z,100926.50
2023-12-15T00:22:47.281Z,100992.03
2023-12-15T00:25:15.655Z,100903.03
2023-12-15T00:27:43.641Z,100816.25
2023-12-15T00:30:12.736Z,100993.16
2023-12-15T00:32:40.746Z,101010.59
2023-12-15T00:35:09.230Z,100903.97
2023-12-15T00:37:38.750Z,100749.75
2023-12-15T00:40:07.986Z,101014.16
2023-12-15T00:42:35.886Z,101017.78
2023-12-15T00:45:03.749Z,100714.25
2023-12-15T00:47:32.021Z,100773.41
2023-12-15T00:50:00.522Z,100674.09
2023-12-15T00:52:28.449Z,100970.41
2023-12-15T00:54:57.646Z,100767.44
2023-12-15T00:57:25.513Z,100750.56
2023-12-15T00:59:53.368Z,100785.16
2023-12-15T01:02:21.311Z,100707.72
2023-12-15T01:04:49.592Z,100772.28
2023-12-15T01:07:17.506Z,100827.31
2023-12-15T01:09:45.348Z,100683.69
2023-12-15T01:12:15.388Z,100878.16
2023-12-15T01:14:43.560Z,100881.72
2023-12-15T01:17:11.479Z,100855.81
2023-12-15T01:19:39.358Z,100691.66
2023-12-15T01:22:07.228Z,100613.81
2023-12-15T01:24:35.157Z,100767.25
2023-12-15T01:27:02.994Z,100869.34
2023-12-15T01:29:32.378Z,100898.69
2023-12-15T01:32:00.385Z,100959.84
2023-12-15T01:34:28.421Z,100948.06
2023-12-15T01:36:56.323Z,100854.28
2023-12-15T01:39:24.118Z,101048.66
2023-12-15T01:41:51.965Z,100831.00
2023-12-15T01:44:20.028Z,100795.31
2023-12-15T01:46:49.351Z,100784.34
2023-12-15T01:49:17.278Z,100918.06
2023-12-15T01:51:45.292Z,101048.13
2023-12-15T01:54:13.177Z,101079.97
2023-12-15T01:56:46.241Z,100860.19
2023-12-15T01:59:14.244Z,100839.84
2023-12-15T02:01:44.322Z,100899.78
2023-12-15T02:04:13.737Z,100753.66
2023-12-15T02:06:42.631Z,100963.63
2023-12-15T02:09:19.681Z,100826.88
2023-12-15T02:11:47.639Z,100793.28
2023-12-15T02:14:30.325Z,100877.22
2023-12-15T02:16:59.933Z,100927.63
2023-12-15T02:19:28.308Z,101051.44
2023-12-15T02:21:56.136Z,100999.53
2023-12-15T02:24:28.674Z,101054.97
2023-12-15T02:26:56.533Z,101036.56
2023-12-15T02:29:24.488Z,101053.34
2023-12-15T02:31:52.406Z,101052.44
2023-12-15T02:34:20.558Z,101052.44
2023-12-15T02:36:48.371Z,101054.28
2023-12-15T02:39:16.239Z,101055.03
2023-12-15T02:41:46.372Z,101063.75
2023-12-15T02:44:14.269Z,101074.28
2023-12-15T02:46:42.069Z,101075.19
2023-12-15T02:49:10.446Z,101075.19
2023-12-15T02:51:38.437Z,101075.19
2023-12-15T02:54:05.309Z,101066.44
2023-12-15T02:56:33.314Z,101078.59
2023-12-15T02:59:02.630Z,101056.56
2023-12-15T03:01:30.543Z,101074.25
2023-12-15T03:03:58.668Z,101076.88
2023-12-15T03:06:26.695Z,101069.09
2023-12-15T03:08:54.435Z,101075.13
2023-12-15T03:11:23.925Z,101077.84
2023-12-15T03:13:51.722Z,101072.59
2023-12-15T03:16:21.102Z,101070.00
2023-12-15T03:18:48.866Z,101046.13
2023-12-15T03:21:16.733Z,101062.13
2023-12-15T03:23:44.640Z,101079.53
2023-12-15T03:26:12.410Z,101072.56
2023-12-15T03:28:40.931Z,101018.84
2023-12-15T03:31:08.789Z,101063.66
2023-12-15T03:33:38.430Z,101104.00
2023-12-15T03:36:07.494Z,101108.41
2023-12-15T03:38:36.989Z,101111.03
2023-12-15T03:41:05.074Z,101110.97
2023-12-15T03:43:33.067Z,101118.06
2023-12-15T03:46:02.495Z,101106.69
2023-12-15T03:48:30.545Z,101117.25
2023-12-15T03:51:00.142Z,101114.63
2023-12-15T03:53:28.066Z,101102.16
2023-12-15T03:55:55.850Z,101121.66
2023-12-15T03:58:23.747Z,101089.94
2023-12-15T04:00:52.450Z,101122.47
2023-12-15T04:03:20.342Z,101132.97
2023-12-15T04:05:48.173Z,101134.75
2023-12-15T04:08:17.549Z,101139.09
2023-12-15T04:10:45.304Z,101144.31
2023-12-15T04:13:13.052Z,101147.69
2023-12-15T04:15:40.991Z,101145.91
2023-12-15T04:18:09.257Z,101147.69
2023-12-15T04:20:37.328Z,101131.03
2023-12-15T04:23:05.360Z,101144.03
2023-12-15T04:25:34.522Z,101150.19
2023-12-15T04:28:02.513Z,101156.34
2023-12-15T04:30:30.316Z,101152.88
2023-12-15T04:32:58.262Z,101159.84
2023-12-15T04:35:26.096Z,101168.53
2023-12-15T04:37:54.080Z,101176.34
2023-12-15T04:40:22.315Z,101180.59
2023-12-15T04:42:51.544Z,101189.38
2023-12-15T04:45:19.442Z,101177.06
2023-12-15T04:47:47.446Z,101160.41
2023-12-15T04:50:15.262Z,101170.09
2023-12-15T04:52:43.143Z,101165.59
2023-12-15T04:55:10.892Z,101163.84
2023-12-15T04:57:39.180Z,101175.34
2023-12-15T05:00:10.302Z,101176.13
2023-12-15T05:02:38.307Z,101183.00
2023-12-15T05:05:08.168Z,101171.81
2023-12-15T05:07:36.632Z,101177.94
2023-12-15T05:10:05.269Z,101177.09
2023-12-15T05:12:35.026Z,101193.78
2023-12-15T05:15:02.923Z,101192.09
2023-12-15T05:17:32.637Z,101186.03
2023-12-15T05:20:03.112Z,101195.66
2023-12-15T05:22:31.193Z,101201.78
2023-12-15T05:24:59.292Z,101196.63
2023-12-15T05:27:27.042Z,101201.00
2023-12-15T05:29:54.959Z,101196.63
2023-12-15T05:32:22.807Z,101201.00
2023-12-15T05:34:52.205Z,101210.53
2023-12-15T05:37:19.952Z,101209.69
2023-12-15T05:39:47.938Z,101212.28
2023-12-15T05:42:15.766Z,101215.81
2023-12-15T05:44:43.818Z,101212.34
2023-12-15T05:47:11.648Z,101212.28
2023-12-15T05:49:40.974Z,101216.56
2023-12-15T05:52:11.344Z,101220.19
2023-12-15T05:54:39.962Z,101189.91
2023-12-15T05:57:08.476Z,101228.88
2023-12-15T05:59:37.228Z,101231.53
2023-12-15T06:02:05.253Z,101186.38
2023-12-15T06:04:33.413Z,101218.84
2023-12-15T06:07:01.163Z,101240.25
2023-12-15T06:09:30.406Z,101240.25
2023-12-15T06:11:58.299Z,101236.00
2023-12-15T06:14:26.573Z,101249.94
2023-12-15T06:16:54.493Z,101247.31
2023-12-15T06:19:22.600Z,101248.19
2023-12-15T06:21:50.393Z,101256.00
2023-12-15T06:24:18.349Z,101269.03
2023-12-15T06:26:47.470Z,101279.44
2023-12-15T06:29:15.415Z,101265.47
2023-12-15T06:31:46.980Z,101253.22
2023-12-15T06:34:14.990Z,101265.53
2023-12-15T06:36:42.909Z,101265.47
2023-12-15T06:39:14.433Z,101266.41
2023-12-15T06:41:42.209Z,101267.31
2023-12-15T06:44:11.499Z,101280.44
2023-12-15T06:46:40.281Z,101268.03
2023-12-15T06:49:08.260Z,101280.44
2023-12-15T06:51:36.036Z,101283.91
2023-12-15T06:54:04.316Z,101280.38
2023-12-15T06:56:32.264Z,101278.53
2023-12-15T06:59:00.313Z,101299.69
2023-12-15T07:01:29.627Z,101293.59
2023-12-15T07:03:57.697Z,101294.47
2023-12-15T07:06:25.497Z,101306.72
2023-12-15T07:08:56.012Z,101312.75
2023-12-15T07:11:23.839Z,101253.50
2023-12-15T07:13:51.791Z,101303.97
2023-12-15T07:16:20.075Z,101313.59
2023-12-15T07:18:49.446Z,101338.19
2023-12-15T07:21:18.441Z,101340.91
2023-12-15T07:23:46.242Z,101332.00
2023-12-15T07:26:14.262Z,101346.13
2023-12-15T07:28:41.997Z,101343.56
2023-12-15T07:31:12.487Z,101318.88
2023-12-15T07:33:40.700Z,101349.72
2023-12-15T07:36:17.912Z,101343.56
2023-12-15T07:38:45.716Z,101340.06
2023-12-15T07:41:13.632Z,101349.66
2023-12-15T07:43:41.573Z,101347.03
2023-12-15T07:46:17.345Z,101347.84
2023-12-15T07:48:45.206Z,101339.00
2023-12-15T07:51:18.987Z,101337.22
2023-12-15T07:53:47.781Z,101368.97
2023-12-15T07:56:22.974Z,101362.84
2023-12-15T07:58:51.150Z,101369.81
2023-12-15T08:01:19.413Z,101380.28
2023-12-15T08:03:47.265Z,101373.38
2023-12-15T08:06:15.431Z,101373.38
2023-12-15T08:08:45.325Z,101368.22
2023-12-15T08:11:14.326Z,101346.94
2023-12-15T08:13:42.684Z,101376.97
2023-12-15T08:16:13.171Z,101385.72
2023-12-15T08:18:43.781Z,101384.81
2023-12-15T08:21:12.121Z,101330.75
2023-12-15T08:23:40.114Z,101326.16
2023-12-15T08:26:09.681Z,101362.91
2023-12-15T08:28:38.030Z,101423.19
2023-12-15T08:31:06.207Z,101078.22
2023-12-15T08:33:34.264Z,101384.34
2023-12-15T08:36:02.114Z,101094.81
2023-12-15T08:38:29.997Z,101403.22
2023-12-15T08:40:58.310Z,101316.66
2023-12-15T08:43:27.945Z,101197.88
2023-12-15T08:45:55.849Z,101263.69
2023-12-15T08:48:25.193Z,101165.47
2023-12-15T08:50:53.093Z,101266.06
2023-12-15T08:53:21.113Z,101518.88
2023-12-15T08:55:49.040Z,101278.59
2023-12-15T08:58:17.113Z,101214.66
2023-12-15T09:00:46.871Z,101148.56
2023-12-15T09:03:15.558Z,101270.81
2023-12-15T09:06:07.341Z,101408.75
2023-12-15T09:08:31.864Z,101527.94
2023-12-15T09:11:00.096Z,101380.06
2023-12-15T09:13:28.117Z,101304.25
2023-12-15T09:15:57.894Z,101293.97
2023-12-15T09:18:28.191Z,101550.69
2023-12-15T09:20:57.431Z,101544.59
2023-12-15T09:23:25.595Z,101534.91
2023-12-15T09:25:54.765Z,101447.25
2023-12-15T09:28:22.830Z,101263.28
2023-12-15T09:30:50.744Z,101296.19
2023-12-15T09:33:20.344Z,101352.81
2023-12-15T09:35:49.221Z,101249.16
2023-12-15T09:38:19.372Z,101458.97
2023-12-15T09:40:48.058Z,101434.00
2023-12-15T09:43:16.449Z,101315.13
2023-12-15T09:45:46.649Z,101560.84
2023-12-15T09:48:15.394Z,101450.47
2023-12-15T09:50:46.307Z,101209.13
2023-12-15T09:53:14.698Z,101269.97
2023-12-15T09:55:42.698Z,101367.84
2023-12-15T09:58:10.785Z,101565.78
2023-12-15T10:00:38.760Z,101570.22
2023-12-15T10:03:07.971Z,101295.69
2023-12-15T10:05:36.355Z,101617.44
2023-12-15T10:08:05.982Z,101456.75
2023-12-15T10:10:33.996Z,101514.69
2023-12-15T10:13:02.172Z,101522.75
2023-12-15T10:15:31.287Z,101376.22
2023-12-15T10:18:00.013Z,101567.84
2023-12-15T10:20:40.956Z,101159.09
2023-12-15T10:23:10.860Z,101465.59
2023-12-15T10:26:02.712Z,101592.22
2023-12-15T10:28:37.104Z,101496.78
2023-12-15T10:31:06.727Z,101635.19
2023-12-15T10:33:35.371Z,101322.34
2023-12-15T10:36:07.538Z,101338.78
2023-12-15T10:38:37.005Z,101384.75
2023-12-15T10:41:05.149Z,101693.13
2023-12-15T10:43:49.071Z,101501.31
2023-12-15T10:46:17.445Z,101469.09
2023-12-15T10:48:47.659Z,101415.34
2023-12-15T10:51:15.798Z,101556.78
2023-12-15T10:53:45.350Z,101473.22
2023-12-15T10:56:13.439Z,101344.03
2023-12-15T10:58:41.703Z,101579.66
2023-12-15T11:01:10.770Z,101429.97
2023-12-15T11:03:39.150Z,101429.00
2023-12-15T11:06:07.871Z,101356.91
2023-12-15T11:08:36.843Z,101188.16
2023-12-15T11:11:09.029Z,101520.47
2023-12-15T11:13:58.986Z,101571.81
2023-12-15T11:16:32.046Z,101625.03
2023-12-15T11:19:01.036Z,101636.50
2023-12-15T11:21:29.983Z,101619.28
2023-12-15T11:24:13.194Z,101346.78
2023-12-15T11:26:44.053Z,101390.59
2023-12-15T11:29:13.699Z,101095.66
2023-12-15T11:31:42.747Z,101577.78
2023-12-15T11:34:11.181Z,101379.88
2023-12-15T11:39:36.390Z,101278.59
2023-12-15T11:42:06.901Z,101549.91
2023-12-15T11:44:34.954Z,101686.56
2023-12-15T11:47:03.188Z,101544.34
2023-12-15T11:49:31.118Z,101507.13
2023-12-15T11:51:59.001Z,101532.34
2023-12-15T11:54:27.338Z,101681.38
2023-12-15T11:56:55.680Z,101498.38
2023-12-15T11:59:25.205Z,101750.53
2023-12-15T12:01:53.352Z,101242.34
2023-12-15T12:04:21.629Z,101273.66
2023-12-15T12:06:49.531Z,101309.41
2023-12-15T12:09:17.426Z,101331.34
2023-12-15T12:11:46.239Z,101537.19
2023-12-15T12:14:14.699Z,101472.72
2023-12-15T12:16:48.901Z,101483.66
2023-12-15T12:19:18.085Z,101337.06
2023-12-15T12:21:47.909Z,101666.59
2023-12-15T12:24:16.039Z,101480.63
2023-12-15T12:26:43.981Z,101515.91
2023-12-15T12:29:11.864Z,101640.59
2023-12-15T12:31:40.108Z,101585.97
2023-12-15T12:34:09.707Z,101666.41
2023-12-15T12:36:37.746Z,101695.16
2023-12-15T12:39:07.718Z,101501.16
2023-12-15T12:41:35.770Z,101548.97
2023-12-15T12:44:03.743Z,101355.69
2023-12-15T12:46:32.213Z,101380.00
2023-12-15T12:49:00.276Z,101408.44
2023-12-15T12:51:30.111Z,101282.72
2023-12-15T12:54:07.931Z,101544.59
2023-12-15T12:56:54.440Z,101584.00
2023-12-15T12:59:29.032Z,101646.78
2023-12-15T13:02:07.280Z,101378.47
2023-12-15T13:04:57.782Z,101472.75
2023-12-15T13:10:22.258Z,101678.66
2023-12-15T13:12:56.089Z,101671.69
2023-12-15T13:15:24.197Z,101673.41
2023-12-15T13:18:16.891Z,101668.16
2023-12-15T13:20:44.876Z,101662.13
2023-12-15T13:23:12.758Z,101648.19
2023-12-15T13:25:42.988Z,101640.47
2023-12-15T13:28:11.475Z,101643.25
2023-12-15T13:30:39.682Z,101638.97
2023-12-15T13:33:07.752Z,101585.94
2023-12-15T13:35:35.881Z,101658.25
2023-12-15T13:38:04.248Z,101674.88
2023-12-15T13:40:32.049Z,101674.81
2023-12-15T13:43:01.500Z,101683.50
2023-12-15T13:45:29.313Z,101672.06
2023-12-15T13:47:58.229Z,101671.91
2023-12-15T13:50:28.049Z,101678.09
2023-12-15T13:52:56.391Z,101620.59
2023-12-15T13:55:24.198Z,101677.97
2023-12-15T13:57:52.869Z,101666.31
2023-12-15T14:00:22.817Z,101687.44
2023-12-15T14:02:50.667Z,101680.13
2023-12-15T14:05:18.620Z,101633.44
2023-12-15T14:07:47.524Z,101674.16
2023-12-15T14:10:16.269Z,101635.22
2023-12-15T14:12:44.367Z,101675.84
2023-12-15T14:15:12.490Z,101676.69
2023-12-15T14:17:42.085Z,101685.34
2023-12-15T14:20:11.159Z,101666.97
2023-12-15T14:22:39.908Z,101755.47
2023-12-15T14:25:10.476Z,101598.69
2023-12-15T14:27:38.969Z,101513.00
2023-12-15T14:30:11.930Z,101348.75
2023-12-15T14:32:42.246Z,101338.69
2023-12-15T14:35:11.463Z,101545.16
2023-12-15T14:37:39.579Z,101362.84
2023-12-15T14:40:08.919Z,101628.31
2023-12-15T14:42:37.308Z,101592.38
2023-12-15T14:45:06.156Z,101584.94
2023-12-15T14:47:34.350Z,101511.28
2023-12-15T14:50:04.912Z,101562.25
2023-12-15T14:52:34.553Z,101737.09
2023-12-15T14:55:02.999Z,101365.03
2023-12-15T14:57:31.338Z,101816.16
2023-12-15T15:00:06.912Z,101782.00
2023-12-15T15:02:35.063Z,101678.34
2023-12-15T15:05:08.818Z,101739.63
2023-12-15T15:07:37.226Z,101585.50
2023-12-15T15:10:05.464Z,101776.63
2023-12-15T15:12:33.556Z,101742.84
2023-12-15T15:15:01.405Z,101705.19
2023-12-15T15:17:32.466Z,101702.16
2023-12-15T15:20:00.484Z,101528.06
2023-12-15T15:22:29.853Z,101708.09
2023-12-15T15:24:57.658Z,101732.34
2023-12-15T15:27:26.252Z,101790.41
2023-12-15T15:29:54.240Z,101683.63
2023-12-15T15:32:22.771Z,101781.53
2023-12-15T15:34:58.918Z,101817.56
2023-12-15T15:37:32.336Z,101814.06
2023-12-15T15:40:00.340Z,101823.69
2023-12-15T15:42:28.353Z,101905.88
2023-12-15T15:44:56.286Z,101870.00
2023-12-15T15:47:29.990Z,101471.28
2023-12-15T15:49:58.669Z,101795.19
2023-12-15T15:52:27.538Z,101827.09
2023-12-15T15:54:56.784Z,101790.25
2023-12-15T15:57:24.738Z,101894.25
2023-12-15T15:59:52.577Z,101734.56
2023-12-15T16:02:20.712Z,101663.91
2023-12-15T16:04:48.784Z,101808.75
2023-12-15T16:07:18.262Z,101666.66
2023-12-15T16:09:50.212Z,101629.69
2023-12-15T16:12:20.653Z,101846.81
2023-12-15T16:14:48.702Z,101813.47
2023-12-15T16:17:16.703Z,101463.59
2023-12-15T16:19:47.823Z,101550.72
2023-12-15T16:22:16.036Z,101762.13
2023-12-15T16:24:45.949Z,101617.72
2023-12-15T16:27:13.980Z,101674.94
2023-12-15T16:29:46.086Z,101859.59
2023-12-15T16:32:15.350Z,101531.25
2023-12-15T16:34:43.157Z,101821.22
2023-12-15T16:37:11.171Z,101670.50
2023-12-15T16:39:40.674Z,101405.63
2023-12-15T16:42:09.551Z,101773.38
2023-12-15T16:44:37.441Z,101817.66
2023-12-15T16:47:06.744Z,101817.78
2023-12-15T16:49:34.611Z,101663.31
2023-12-15T16:52:03.670Z,101854.31
2023-12-15T16:54:31.510Z,101750.56
2023-12-15T16:56:59.246Z,101638.19
2023-12-15T16:59:27.034Z,101600.50
2023-12-15T17:01:55.659Z,101680.63
2023-12-15T17:04:25.976Z,101621.91
2023-12-15T17:06:53.854Z,101706.50
2023-12-15T17:09:21.736Z,101905.66
2023-12-15T17:11:49.536Z,101797.53
2023-12-15T17:14:17.306Z,101721.03
2023-12-15T17:16:45.137Z,101413.47
2023-12-15T17:19:13.196Z,101923.94
2023-12-15T17:21:42.486Z,101657.13
2023-12-15T17:24:10.335Z,101861.94
2023-12-15T17:26:38.108Z,101692.78
2023-12-15T17:29:05.864Z,101634.25
2023-12-15T17:31:33.708Z,101734.72
2023-12-15T17:34:01.710Z,101785.47
2023-12-15T17:36:29.574Z,101757.47
2023-12-15T17:38:58.745Z,101796.38
2023-12-15T17:41:26.579Z,101842.00
2023-12-15T17:43:54.482Z,101802.72
2023-12-15T17:46:23.704Z,101738.25
2023-12-15T17:48:51.678Z,101880.84
2023-12-15T17:51:19.601Z,101830.63
2023-12-15T17:53:47.453Z,101667.97
2023-12-15T17:56:16.770Z,101608.66
2023-12-15T17:58:45.992Z,101854.28
2023-12-15T18:01:13.965Z,101713.94
2023-12-15T18:03:42.102Z,101771.94
2023-12-15T18:06:10.063Z,101955.47
2023-12-15T18:08:37.898Z,101890.88
2023-12-15T18:11:05.858Z,101814.06
2023-12-15T18:13:35.895Z,101703.31
2023-12-15T18:16:04.701Z,101893.00
2023-12-15T18:18:32.673Z,101653.66
2023-12-15T18:21:00.881Z,101793.09
2023-12-15T18:23:28.692Z,101621.00
2023-12-15T18:25:56.493Z,101796.69
2023-12-15T18:28:25.601Z,101767.44
2023-12-15T18:30:55.202Z,101942.13
2023-12-15T18:33:23.155Z,101854.97
2023-12-15T18:35:51.024Z,101826.22
2023-12-15T18:38:19.434Z,101754.31
2023-12-15T18:40:48.568Z,101867.25
2023-12-15T18:43:16.775Z,101860.34
2023-12-15T18:45:44.801Z,101597.06
2023-12-15T18:48:15.208Z,101882.38
2023-12-15T18:50:43.477Z,101949.00
2023-12-15T18:53:11.296Z,101821.81
2023-12-15T18:55:39.077Z,101736.19
2023-12-15T18:58:06.889Z,101696.34
2023-12-15T19:00:34.911Z,101951.75
2023-12-15T19:03:03.239Z,101814.88
2023-12-15T19:05:32.487Z,101887.84
2023-12-15T19:08:00.888Z,101957.03
2023-12-15T19:10:28.810Z,101795.25
2023-12-15T19:12:56.779Z,101570.34
2023-12-15T19:15:27.148Z,101674.19
2023-12-15T19:17:57.493Z,102005.88
2023-12-15T19:20:34.490Z,101843.03
2023-12-15T19:23:02.440Z,101738.50
2023-12-15T19:25:30.457Z,101945.66
2023-12-15T19:27:58.675Z,101882.97
2023-12-15T19:30:26.756Z,101915.97
2023-12-15T19:32:54.590Z,101833.13
2023-12-15T19:35:22.742Z,101785.00
2023-12-15T19:37:51.881Z,101687.00
2023-12-15T19:40:20.044Z,101812.97
2023-12-15T19:42:47.960Z,101958.63
2023-12-15T19:45:15.920Z,101730.75
2023-12-15T19:47:43.700Z,101859.13
2023-12-15T19:50:11.968Z,101944.47
2023-12-15T19:52:41.229Z,101845.19
2023-12-15T19:55:12.589Z,101712.09
2023-12-15T19:57:40.789Z,102063.34
2023-12-15T20:00:12.222Z,101684.47
2023-12-15T20:02:40.400Z,101622.66
2023-12-15T20:05:09.044Z,101808.22
2023-12-15T20:07:37.646Z,101907.03
2023-12-15T20:10:06.726Z,102033.66
2023-12-15T20:12:36.008Z,101782.72
2023-12-15T20:15:04.463Z,101739.88
2023-12-15T20:17:33.217Z,101966.22
2023-12-15T20:20:01.468Z,102030.00
2023-12-15T20:22:31.275Z,101972.28
2023-12-15T20:24:59.194Z,101960.59
2023-12-15T20:27:26.936Z,101993.25
2023-12-15T20:29:56.162Z,101998.44
2023-12-15T20:32:23.968Z,102003.59
2023-12-15T20:34:51.887Z,102009.81
2023-12-15T20:37:19.777Z,102019.41
2023-12-15T20:39:47.834Z,102013.22
2023-12-15T20:42:16.273Z,102007.78
2023-12-15T20:44:44.066Z,102020.16
2023-12-15T20:47:13.283Z,102018.34
2023-12-15T20:49:44.202Z,102016.63
2023-12-15T20:52:12.564Z,102006.88
2023-12-15T20:54:43.719Z,102030.47
2023-12-15T20:57:11.764Z,102035.81
2023-12-15T20:59:42.614Z,102031.38
2023-12-15T21:02:10.682Z,102039.28
2023-12-15T21:04:41.746Z,102038.44
2023-12-15T21:07:11.607Z,102038.47
2023-12-15T21:09:40.774Z,102039.28
2023-12-15T21:12:09.174Z,102041.97
2023-12-15T21:14:37.072Z,102001.25
2023-12-15T21:17:06.869Z,102011.19
2023-12-15T21:19:35.917Z,102025.28
2023-12-15T21:22:05.544Z,102024.38
2023-12-15T21:24:33.502Z,102014.66
2023-12-15T21:27:01.537Z,102019.13
2023-12-15T21:29:29.267Z,102013.91
2023-12-15T21:31:58.014Z,102003.28
2023-12-15T21:34:25.959Z,102018.31
2023-12-15T21:36:54.096Z,102019.13
2023-12-15T21:39:23.264Z,102015.47
2023-12-15T21:41:51.058Z,102015.56
2023-12-15T21:44:18.799Z,102006.75
2023-12-15T21:46:46.906Z,102004.13
2023-12-15T21:49:14.831Z,101989.66
2023-12-15T21:51:43.812Z,102012.81
2023-12-15T21:54:11.637Z,102012.84
2023-12-15T21:56:40.861Z,102012.81
2023-12-15T21:59:08.600Z,102009.34
2023-12-15T22:01:36.517Z,102010.22
2023-12-15T22:04:06.515Z,102002.38
2023-12-15T22:06:34.410Z,101998.78
2023-12-15T22:09:02.166Z,102009.31
2023-12-15T22:11:29.896Z,102010.22
2023-12-15T22:13:59.089Z,102012.00
2023-12-15T22:16:26.915Z,102014.59
2023-12-15T22:18:54.839Z,102013.69
2023-12-15T22:21:23.776Z,102011.06
2023-12-15T22:23:51.712Z,102017.16
2023-12-15T22:26:21.859Z,101969.75
2023-12-15T22:28:49.892Z,102023.31
2023-12-15T22:31:19.285Z,102021.50
2023-12-15T22:33:47.165Z,102018.81
2023-12-15T22:36:21.802Z,102027.59
2023-12-15T22:38:49.707Z,101916.44
2023-12-15T22:41:18.008Z,102038.19
2023-12-15T22:43:45.790Z,102041.66
2023-12-15T22:46:13.736Z,102038.19
2023-12-15T22:48:44.009Z,102043.50
2023-12-15T22:51:12.173Z,102045.22
2023-12-15T22:53:39.932Z,102026.41
2023-12-15T22:56:09.103Z,102058.28
2023-12-15T22:58:36.858Z,102065.28
2023-12-15T23:01:06.294Z,102054.75
2023-12-15T23:03:34.190Z,101912.75
2023-12-15T23:06:05.175Z,102037.06
2023-12-15T23:08:33.027Z,102031.72
2023-12-15T23:11:00.812Z,102028.28
2023-12-15T23:13:28.984Z,102045.97
2023-12-15T23:15:57.887Z,102045.06
2023-12-15T23:18:25.862Z,102031.78
2023-12-15T23:20:53.723Z,102046.75
2023-12-15T23:23:23.036Z,102041.44
2023-12-15T23:25:50.917Z,102053.69
2023-12-15T23:28:18.748Z,102054.53
2023-12-15T23:30:47.873Z,102068.50
2023-12-15T23:33:15.798Z,102072.81
2023-12-15T23:35:43.777Z,102057.75
2023-12-15T23:38:11.574Z,102078.06
2023-12-15T23:40:42.228Z,102043.34
2023-12-15T23:43:11.147Z,102080.38
2023-12-15T23:45:39.129Z,102092.91
2023-12-15T23:48:07.366Z,102096.44
2023-12-15T23:50:35.166Z,102094.75
2023-12-15T23:53:04.520Z,102088.53
2023-12-15T23:55:32.408Z,102079.81
2023-12-15T23:58:01.497Z,102077.97
